createdAt,value
2017-09-10T00:05:02.271Z,99309.14
2017-09-10T00:07:35.556Z,99311.03
2017-09-10T00:25:04.966Z,99313.61
2017-09-10T00:39:23.673Z,99310.77
2017-09-10T00:41:59.275Z,99311.66
2017-09-10T02:01:22.614Z,99380.83
2017-09-10T02:14:46.005Z,99384.62
2017-09-10T02:35:21.192Z,99396.81
2017-09-10T02:37:57.856Z,99409.34
2017-09-10T02:43:08.901Z,99414.09
2017-09-10T02:48:41.471Z,99412.16
2017-09-10T02:51:15.684Z,99413.20
2017-09-10T02:53:48.135Z,99413.80
2017-09-10T02:56:39.459Z,99414.78
2017-09-10T02:59:21.213Z,99418.31
2017-09-10T03:02:02.446Z,99418.84
2017-09-10T03:04:46.049Z,99417.66
2017-09-10T03:07:18.769Z,99419.95
2017-09-10T03:10:13.331Z,99418.86
2017-09-10T03:12:46.956Z,99420.23
2017-09-10T03:15:20.008Z,99428.23
2017-09-10T03:18:02.028Z,99426.20
2017-09-10T03:23:35.259Z,99428.75
2017-09-10T04:19:38.497Z,99489.37
2017-09-10T04:50:09.680Z,99512.05
2017-09-10T04:52:44.105Z,99509.70
2017-09-10T04:55:23.226Z,99512.00
2017-09-10T04:57:58.724Z,99523.44
2017-09-10T05:00:43.540Z,99537.81
2017-09-10T05:03:16.449Z,99539.59
2017-09-10T05:05:48.497Z,99543.03
2017-09-10T05:08:20.727Z,99548.06
2017-09-10T05:10:52.831Z,99544.58
2017-09-10T05:13:24.811Z,99547.51
2017-09-10T05:16:02.359Z,99549.75
2017-09-10T05:21:31.709Z,99555.27
2017-09-10T05:24:05.319Z,99553.52
2017-09-10T05:26:41.827Z,99557.67
2017-09-10T05:29:15.460Z,99561.20
2017-09-10T05:32:12.127Z,99567.08
2017-09-10T05:35:03.096Z,99571.38
2017-09-10T05:40:30.629Z,99577.52
2017-09-10T05:43:04.555Z,99583.88
2017-09-10T05:45:37.205Z,99586.86
2017-09-10T05:48:23.830Z,99587.87
2017-09-10T05:50:57.335Z,99595.47
2017-09-10T05:53:35.435Z,99595.67
2017-09-10T05:56:07.926Z,99596.41
2017-09-10T05:58:39.674Z,99602.50
2017-09-10T06:01:16.879Z,99595.39
2017-09-10T06:03:48.644Z,99600.30
2017-09-10T06:06:23.273Z,99600.53
2017-09-10T06:08:59.526Z,99598.80
2017-09-10T06:11:31.539Z,99602.53
2017-09-10T06:14:10.536Z,99608.48
2017-09-10T06:16:43.709Z,99620.34
2017-09-10T06:19:15.238Z,99620.10
2017-09-10T06:21:53.623Z,99629.28
2017-09-10T06:24:25.577Z,99624.27
2017-09-10T09:18:27.814Z,99689.82
2017-09-10T09:20:58.936Z,99684.41
2017-09-10T09:23:43.153Z,99683.69
2017-09-10T09:26:14.353Z,99689.70
2017-09-10T09:31:35.821Z,99684.77
2017-09-10T09:37:02.595Z,99667.80
2017-09-10T09:39:36.964Z,99674.72
2017-09-10T09:42:26.236Z,99669.97
2017-09-10T09:45:01.234Z,99676.64
2017-09-10T09:47:35.513Z,99687.55
2017-09-10T09:50:11.034Z,99688.95
2017-09-10T09:52:46.183Z,99684.36
2017-09-10T09:55:18.808Z,99677.25
2017-09-10T09:57:53.069Z,99674.47
2017-09-10T10:00:24.443Z,99676.54
2017-09-10T10:02:59.596Z,99678.04
2017-09-10T10:05:32.785Z,99684.32
2017-09-10T10:08:11.319Z,99681.91
2017-09-10T10:10:43.762Z,99683.78
2017-09-10T10:13:18.953Z,99687.14
2017-09-10T10:15:53.855Z,99682.09
2017-09-10T10:18:27.608Z,99684.30
2017-09-10T10:21:04.387Z,99681.22
2017-09-10T10:23:54.197Z,99674.67
2017-09-10T10:26:31.507Z,99669.03
2017-09-10T10:29:04.808Z,99679.66
2017-09-10T10:31:40.214Z,99683.95
2017-09-10T10:34:18.541Z,99675.50
2017-09-10T10:36:52.655Z,99670.03
2017-09-10T10:39:26.090Z,99675.08
2017-09-10T10:42:15.697Z,99671.60
2017-09-10T10:44:47.242Z,99664.54
2017-09-10T10:47:26.325Z,99674.23
2017-09-10T10:50:15.769Z,99668.57
2017-09-10T10:52:48.357Z,99671.14
2017-09-10T10:55:38.210Z,99668.31
2017-09-10T10:58:19.268Z,99661.33
2017-09-10T11:03:45.267Z,99651.37
2017-09-10T11:06:20.777Z,99644.50
2017-09-10T11:08:54.960Z,99647.64
2017-09-10T11:17:17.453Z,99657.20
2017-09-10T11:19:52.094Z,99636.09
2017-09-10T11:23:27.336Z,99622.13
2017-09-10T11:26:10.015Z,99618.27
2017-09-10T11:28:43.296Z,99613.80
2017-09-10T11:31:16.419Z,99619.98
2017-09-10T11:33:58.519Z,99635.25
2017-09-10T11:37:21.275Z,99638.09
2017-09-10T11:39:56.991Z,99611.72
2017-09-10T11:42:33.288Z,99613.42
2017-09-10T11:45:05.684Z,99606.11
2017-09-10T11:53:27.495Z,99573.98
2017-09-10T11:55:58.628Z,99575.17
2017-09-10T12:01:30.477Z,99570.23
2017-09-10T12:04:02.386Z,99565.39
2017-09-10T12:06:33.927Z,99564.59
2017-09-10T12:12:12.348Z,99552.80
2017-09-10T12:20:32.977Z,99546.24
2017-09-10T12:23:25.900Z,99542.67
2017-09-10T12:25:58.286Z,99546.27
2017-09-10T12:43:09.772Z,99554.05
2017-09-10T12:45:44.113Z,99562.41
2017-09-10T12:48:21.136Z,99561.70
2017-09-10T12:51:03.025Z,99558.03
2017-09-10T12:53:36.862Z,99561.00
2017-09-10T12:59:06.436Z,99547.74
2017-09-10T13:01:38.963Z,99548.84
2017-09-10T13:04:25.934Z,99566.11
2017-09-10T13:15:23.674Z,99577.67
2017-09-10T13:17:57.081Z,99569.44
2017-09-10T13:20:28.447Z,99554.09
2017-09-10T13:28:57.591Z,99549.69
2017-09-10T13:31:32.604Z,99552.20
2017-09-10T13:34:06.533Z,99549.85
2017-09-10T13:36:42.176Z,99563.45
2017-09-10T13:39:17.324Z,99565.80
2017-09-10T13:41:52.308Z,99567.58
2017-09-10T13:44:25.567Z,99572.75
2017-09-10T13:46:59.029Z,99573.94
2017-09-10T13:49:30.895Z,99581.92
2017-09-10T13:52:06.447Z,99584.91
2017-09-10T13:54:40.683Z,99585.60
2017-09-10T14:00:05.077Z,99561.22
2017-09-10T14:02:37.380Z,99545.39
2017-09-10T14:07:52.705Z,99541.14
2017-09-10T14:10:26.430Z,99545.45
2017-09-10T14:13:00.634Z,99546.84
2017-09-10T14:15:37.229Z,99539.25
2017-09-10T14:18:10.106Z,99549.23
2017-09-10T14:20:43.819Z,99542.77
2017-09-10T14:23:17.298Z,99547.36
2017-09-10T14:25:58.231Z,99551.67
2017-09-10T14:28:49.935Z,99547.12
2017-09-10T14:31:30.949Z,99530.22
2017-09-10T14:36:49.899Z,99532.12
2017-09-10T14:42:18.923Z,99530.91
2017-09-10T14:47:49.316Z,99519.84
2017-09-10T14:50:23.079Z,99524.77
2017-09-10T14:52:57.333Z,99526.64
2017-09-10T14:55:32.193Z,99530.02
2017-09-10T15:00:58.878Z,99522.14
2017-09-10T15:03:30.423Z,99528.53
2017-09-10T15:06:03.008Z,99515.84
2017-09-10T15:14:29.293Z,99521.92
2017-09-10T15:28:41.292Z,99507.44
2017-09-10T15:31:26.014Z,99508.92
2017-09-10T15:34:39.378Z,99501.88
2017-09-10T15:37:10.701Z,99504.28
2017-09-10T15:42:37.380Z,99493.25
2017-09-10T15:45:08.640Z,99499.98
2017-09-10T15:54:34.412Z,99505.52
2017-09-10T15:57:14.090Z,99504.48
2017-09-10T15:59:46.791Z,99494.33
2017-09-10T16:02:19.030Z,99495.41
2017-09-10T16:05:09.346Z,99491.36
2017-09-10T16:07:41.970Z,99489.64
2017-09-10T16:10:15.318Z,99499.78
2017-09-10T16:15:43.576Z,99487.78
2017-09-10T16:18:28.637Z,99482.73
2017-09-10T16:21:01.651Z,99485.88
2017-09-10T16:23:39.288Z,99491.30
2017-09-10T16:26:27.748Z,99490.00
2017-09-10T16:29:00.775Z,99488.75
2017-09-10T16:31:45.887Z,99483.01
2017-09-10T16:34:21.023Z,99484.53
2017-09-10T16:36:53.811Z,99484.64
2017-09-10T16:39:25.025Z,99482.34
2017-09-10T16:41:57.870Z,99475.63
2017-09-10T16:44:32.321Z,99480.06
2017-09-10T16:47:05.496Z,99469.34
2017-09-10T16:49:40.311Z,99477.69
2017-09-10T16:52:13.187Z,99480.94
2017-09-10T16:54:48.621Z,99492.56
2017-09-10T16:57:22.403Z,99494.91
2017-09-10T17:00:05.370Z,99500.98
2017-09-10T17:02:36.597Z,99499.09
2017-09-10T17:05:08.081Z,99497.41
2017-09-10T17:07:39.426Z,99507.89
2017-09-10T17:10:12.260Z,99512.39
2017-09-10T17:12:44.601Z,99511.17
2017-09-10T17:15:17.313Z,99507.75
2017-09-10T17:17:48.722Z,99499.56
2017-09-10T17:20:20.307Z,99506.81
2017-09-10T17:22:52.058Z,99514.44
2017-09-10T17:25:23.998Z,99507.92
2017-09-10T17:27:55.996Z,99512.19
2017-09-10T17:30:27.911Z,99507.25
2017-09-10T17:33:00.710Z,99505.17
2017-09-10T17:38:26.663Z,99501.07
2017-09-10T17:40:59.116Z,99494.67
2017-09-10T17:43:56.997Z,99498.21
2017-09-10T17:46:29.893Z,99494.33
2017-09-10T17:49:01.805Z,99502.61
2017-09-10T17:51:51.407Z,99501.31
2017-09-10T17:54:23.637Z,99510.53
2017-09-10T17:56:56.844Z,99509.00
2017-09-10T17:59:30.011Z,99510.50
2017-09-10T18:02:03.175Z,99502.83
2017-09-10T18:04:34.996Z,99499.40
2017-09-10T18:07:07.994Z,99497.81
2017-09-10T18:09:39.405Z,99495.55
2017-09-10T18:12:11.875Z,99494.27
2017-09-10T18:14:43.511Z,99495.47
2017-09-10T18:17:14.679Z,99508.69
2017-09-10T18:19:46.819Z,99510.73
2017-09-10T18:22:21.214Z,99516.00
2017-09-10T18:24:53.372Z,99511.43
2017-09-10T18:27:25.655Z,99510.04
2017-09-10T18:30:00.071Z,99515.69
2017-09-10T18:32:32.455Z,99511.18
2017-09-10T18:35:06.443Z,99513.69
2017-09-10T18:43:18.401Z,99512.42
2017-09-10T18:45:58.057Z,99507.68
2017-09-10T18:48:29.225Z,99503.04
2017-09-10T18:51:01.150Z,99510.20
2017-09-10T18:53:34.108Z,99510.36
2017-09-10T18:56:13.375Z,99515.19
2017-09-10T18:58:46.739Z,99518.42
2017-09-10T19:07:14.903Z,99515.39
2017-09-10T19:09:46.442Z,99514.58
2017-09-10T19:12:39.072Z,99511.08
2017-09-10T19:15:10.478Z,99508.06
2017-09-10T19:20:37.001Z,99507.03
2017-09-10T19:23:12.820Z,99509.55
2017-09-10T19:25:46.042Z,99508.77
2017-09-10T19:28:19.958Z,99507.79
2017-09-10T19:30:52.289Z,99501.64
2017-09-10T19:33:25.398Z,99499.26
2017-09-10T19:35:57.398Z,99505.08
2017-09-10T19:38:28.768Z,99497.97
2017-09-10T19:41:03.159Z,99494.75
2017-09-10T19:43:34.695Z,99495.25
2017-09-10T19:46:16.789Z,99497.05
2017-09-10T19:48:51.050Z,99500.41
2017-09-10T19:51:23.327Z,99498.45
2017-09-10T19:53:57.029Z,99494.83
2017-09-10T19:56:44.457Z,99494.21
2017-09-10T19:59:19.076Z,99493.46
2017-09-10T20:01:51.122Z,99495.48
2017-09-10T20:04:23.605Z,99487.90
2017-09-10T20:06:58.965Z,99493.02
2017-09-10T20:09:30.214Z,99487.42
2017-09-10T20:12:02.333Z,99487.89
2017-09-10T20:14:45.675Z,99483.81
2017-09-10T20:17:17.810Z,99477.18
2017-09-10T20:19:49.566Z,99471.82
2017-09-10T20:22:23.205Z,99471.75
2017-09-10T20:24:56.652Z,99477.56
2017-09-10T20:27:28.515Z,99482.61
2017-09-10T20:30:01.154Z,99484.84
2017-09-10T20:32:33.177Z,99471.02
2017-09-10T20:35:05.255Z,99474.38
2017-09-10T20:37:37.015Z,99474.44
2017-09-10T20:40:09.241Z,99475.28
2017-09-10T20:42:47.728Z,99475.49
2017-09-10T20:45:19.477Z,99479.90
2017-09-10T20:47:56.412Z,99476.39
2017-09-10T20:50:31.435Z,99474.36
2017-09-10T20:53:03.079Z,99472.77
2017-09-10T20:55:37.085Z,99473.73
2017-09-10T20:58:10.569Z,99467.37
2017-09-10T21:00:43.037Z,99471.97
2017-09-10T21:03:19.168Z,99467.24
2017-09-10T21:05:52.311Z,99459.45
2017-09-10T21:08:27.249Z,99460.09
2017-09-10T21:11:08.796Z,99466.00
2017-09-10T21:13:42.298Z,99466.89
2017-09-10T21:16:16.868Z,99461.34
2017-09-10T21:19:01.994Z,99455.23
2017-09-10T21:21:36.506Z,99454.84
2017-09-10T21:27:03.996Z,99449.84
2017-09-10T21:29:35.183Z,99451.27
2017-09-10T21:38:24.417Z,99447.20
2017-09-10T21:40:58.099Z,99446.33
2017-09-10T21:43:31.912Z,99447.46
2017-09-10T21:46:09.427Z,99455.56
2017-09-10T21:48:43.692Z,99457.11
2017-09-10T21:54:26.824Z,99451.25
2017-09-10T22:02:48.751Z,99456.34
2017-09-10T22:08:17.611Z,99447.44
2017-09-10T22:10:53.878Z,99440.11
2017-09-10T22:13:26.294Z,99436.61
2017-09-10T22:15:57.650Z,99436.60
2017-09-10T22:18:29.711Z,99437.31
2017-09-10T22:21:00.990Z,99432.86
2017-09-10T22:23:55.236Z,99429.98
2017-09-10T22:26:54.901Z,99423.29
2017-09-10T22:29:33.882Z,99425.53
2017-09-10T22:32:09.761Z,99418.36
2017-09-10T22:55:29.180Z,99413.80
2017-09-10T22:58:05.844Z,99411.56
2017-09-10T23:03:56.483Z,99410.26
2017-09-10T23:09:44.128Z,99410.23
2017-09-10T23:12:17.316Z,99394.18
2017-09-10T23:14:49.560Z,99394.86
2017-09-10T23:17:21.075Z,99381.16
2017-09-10T23:19:52.489Z,99370.83
2017-09-10T23:22:24.220Z,99371.40
2017-09-10T23:24:55.814Z,99365.33
2017-09-10T23:27:45.417Z,99356.94
2017-09-10T23:30:34.338Z,99358.46
2017-09-10T23:33:06.575Z,99362.09
2017-09-10T23:35:39.471Z,99356.33
2017-09-10T23:41:06.597Z,99355.12
2017-09-10T23:43:49.571Z,99347.89
2017-09-10T23:46:41.425Z,99350.30
2017-09-10T23:49:14.888Z,99341.77
2017-09-10T23:51:47.395Z,99337.57
2017-09-10T23:54:22.484Z,99342.77
2017-09-10T23:56:53.819Z,99331.02
2017-09-10T23:59:25.593Z,99330.66
